Time;durP1;ratioP1;P1;durP2;ratioP2;P2;SDS_P1;SDS_P2;PMS_P1;PMS_P2;Temp;Humidity;BMP_temperature;BMP_pressure;BME280_temperature;BME280_humidity;BME280_pressure;Samples;Min_cycle;Max_cycle;Signal;HPM_P1;HPM_P2
2022/05/16 05:25:58;;;;;;;2.80;1.75;;;16.90;90.90;;;;;;5069710;28;20628;-70
2022/05/16 05:28:29;;;;;;;4.30;2.15;;;16.70;91.10;;;;;;5048430;28;20201;-70
2022/05/16 05:30:57;;;;;;;4.25;1.83;;;16.90;91.80;;;;;;5042242;28;20174;-70
2022/05/16 05:33:26;;;;;;;4.13;2.08;;;17.10;92.20;;;;;;5036146;28;20185;-70
2022/05/16 05:35:51;;;;;;;4.60;1.98;;;17.40;93.10;;;;;;5039405;28;20177;-70
2022/05/16 05:38:18;;;;;;;3.42;2.03;;;17.60;93.10;;;;;;5039665;28;20189;-71
2022/05/16 05:40:44;;;;;;;4.57;2.10;;;17.80;93.30;;;;;;5047503;28;20169;-71
2022/05/16 05:43:13;;;;;;;2.95;1.85;;;18.00;93.20;;;;;;5052847;28;20172;-70
2022/05/16 05:45:38;;;;;;;3.75;1.98;;;18.20;93.40;;;;;;5052925;28;20215;-71
2022/05/16 05:48:07;;;;;;;3.22;2.08;;;18.30;93.20;;;;;;5052794;28;20169;-71
2022/05/16 05:50:33;;;;;;;3.55;2.17;;;18.50;93.40;;;;;;5052447;28;20245;-71
2022/05/16 05:52:59;;;;;;;3.95;2.17;;;18.60;93.50;;;;;;5052845;28;20185;-70
2022/05/16 05:55:25;;;;;;;2.47;1.65;;;18.70;93.10;;;;;;5052307;28;20200;-70
2022/05/16 05:57:54;;;;;;;2.75;1.95;;;18.80;92.90;;;;;;5053053;28;20362;-70
2022/05/16 06:00:20;;;;;;;3.00;1.95;;;19.00;93.00;;;;;;5052965;28;20177;-70
2022/05/16 06:02:48;;;;;;;4.18;1.98;;;19.00;92.90;;;;;;5044647;28;20189;-70
2022/05/16 06:05:17;;;;;;;2.83;1.90;;;19.10;92.90;;;;;;5033929;28;20213;-72
2022/05/16 06:07:43;;;;;;;3.17;1.63;;;19.20;92.70;;;;;;5053059;28;20185;-72
2022/05/16 06:10:09;;;;;;;3.00;1.90;;;19.30;92.60;;;;;;5051202;28;20246;-71
2022/05/16 06:12:35;;;;;;;3.45;1.90;;;19.40;92.70;;;;;;5066136;28;20272;-71
2022/05/16 06:15:03;;;;;;;10.23;2.08;;;19.40;92.60;;;;;;5035765;28;20183;-72
2022/05/16 06:17:31;;;;;;;9.50;2.33;;;19.40;92.50;;;;;;5040634;28;20197;-69
2022/05/16 06:19:57;;;;;;;4.10;1.80;;;19.50;92.80;;;;;;5052966;28;20181;-72
2022/05/16 06:22:23;;;;;;;1.80;1.33;;;19.50;92.70;;;;;;5058180;28;20242;-72
2022/05/16 06:27:33;;;;;;;2.45;1.80;;;19.50;92.70;;;;;;5069589;28;20203;-72
2022/05/16 06:30:02;;;;;;;3.25;1.95;;;19.60;92.70;;;;;;5051536;28;20192;-72
2022/05/16 06:32:30;;;;;;;2.58;1.70;;;19.60;93.00;;;;;;5050313;28;20174;-70
2022/05/16 06:34:56;;;;;;;4.22;2.10;;;19.60;92.90;;;;;;5052124;28;20169;-69
2022/05/16 06:37:22;;;;;;;2.47;1.92;;;19.60;92.80;;;;;;5037978;28;20228;-69
2022/05/16 06:39:47;;;;;;;3.42;1.70;;;19.70;93.00;;;;;;5038080;28;20230;-66
2022/05/16 06:42:13;;;;;;;3.00;2.10;;;19.70;93.40;;;;;;5038837;28;20307;-72
2022/05/16 06:44:39;;;;;;;3.53;1.92;;;19.70;93.50;;;;;;5029257;28;20213;-69
2022/05/16 06:47:08;;;;;;;3.70;1.88;;;19.70;93.80;;;;;;5035681;28;20185;-72
2022/05/16 06:49:33;;;;;;;3.40;2.00;;;19.80;93.70;;;;;;5038338;28;20200;-72
2022/05/16 06:52:01;;;;;;;4.00;2.00;;;19.80;93.90;;;;;;5034811;28;20184;-72
2022/05/16 06:54:31;;;;;;;3.53;2.05;;;19.80;94.10;;;;;;5035228;28;20182;-70
2022/05/16 06:56:57;;;;;;;3.13;1.75;;;19.90;94.30;;;;;;5038542;28;20185;-70
2022/05/16 06:59:25;;;;;;;4.95;1.88;;;19.90;94.00;;;;;;5031585;28;20204;-70
2022/05/16 07:01:52;;;;;;;2.35;1.90;;;19.90;93.90;;;;;;5019745;28;20198;-70
2022/05/16 07:04:23;;;;;;;5.18;2.28;;;20.00;93.90;;;;;;5034979;28;20289;-70
2022/05/16 07:06:48;;;;;;;2.40;1.80;;;20.00;93.90;;;;;;5018804;28;20217;-70
2022/05/16 07:09:17;;;;;;;3.13;1.98;;;20.10;93.70;;;;;;5034842;28;20194;-69
2022/05/16 07:11:43;;;;;;;4.60;2.22;;;20.10;93.60;;;;;;5050912;28;20180;-69
2022/05/16 07:14:11;;;;;;;3.60;2.20;;;20.10;93.80;;;;;;5037619;28;20185;-69
2022/05/16 07:16:38;;;;;;;2.88;1.83;;;20.20;93.70;;;;;;5038264;28;20176;-70
2022/05/16 07:19:04;;;;;;;3.08;2.13;;;20.20;93.50;;;;;;5038256;28;20260;-66
2022/05/16 07:21:30;;;;;;;4.80;2.30;;;20.30;93.60;;;;;;5028598;28;21666;-70
2022/05/16 07:23:56;;;;;;;3.03;2.00;;;20.30;93.60;;;;;;5037854;28;20291;-70
2022/05/16 07:29:11;;;;;;;4.32;2.00;;;20.40;93.60;;;;;;5043224;28;20220;-72
2022/05/16 07:31:37;;;;;;;4.75;2.03;;;20.40;93.80;;;;;;5028358;28;20269;-72
2022/05/16 07:34:03;;;;;;;3.03;1.95;;;20.50;93.50;;;;;;5034993;28;20231;-70
2022/05/16 07:36:29;;;;;;;3.47;1.98;;;20.50;93.50;;;;;;5021347;28;20185;-71
2022/05/16 07:38:57;;;;;;;4.22;1.90;;;20.60;93.50;;;;;;5037393;28;20181;-70
2022/05/16 07:41:22;;;;;;;2.70;1.95;;;20.70;93.50;;;;;;5037761;28;20392;-70
2022/05/16 07:43:50;;;;;;;3.45;1.92;;;20.80;93.60;;;;;;5036083;28;20197;-70
2022/05/16 07:46:16;;;;;;;3.47;1.85;;;20.90;94.00;;;;;;5036968;28;20217;-70
2022/05/16 07:48:42;;;;;;;5.45;2.40;;;21.00;93.70;;;;;;5036550;28;20200;-69
2022/05/16 07:51:11;;;;;;;5.15;1.88;;;21.10;93.60;;;;;;5037273;28;20243;-70
2022/05/16 07:53:37;;;;;;;4.35;1.92;;;21.10;93.40;;;;;;5037197;28;20197;-69
2022/05/16 07:56:03;;;;;;;3.72;1.90;;;21.20;93.40;;;;;;5037700;28;20239;-69
2022/05/16 07:58:32;;;;;;;4.20;2.20;;;21.30;93.40;;;;;;5032839;28;20181;-69
2022/05/16 08:01:01;;;;;;;4.22;1.90;;;21.40;93.30;;;;;;5017704;28;20198;-70
2022/05/16 08:03:30;;;;;;;5.90;2.38;;;21.40;93.30;;;;;;5035089;28;20199;-67
2022/05/16 08:05:56;;;;;;;3.97;2.22;;;21.50;93.30;;;;;;5036820;28;20201;-70
2022/05/16 08:11:09;;;;;;;4.03;2.20;;;21.70;93.30;;;;;;5055080;28;20249;-70
2022/05/16 08:13:36;;;;;;;4.10;2.20;;;21.80;93.30;;;;;;5033596;28;20194;-71
2022/05/16 08:16:02;;;;;;;4.70;2.10;;;21.90;93.20;;;;;;5028220;28;20204;-70
2022/05/16 08:18:30;;;;;;;4.68;2.08;;;22.00;93.30;;;;;;5034057;28;20261;-69
2022/05/16 08:20:56;;;;;;;3.45;1.80;;;22.10;93.50;;;;;;5037173;28;20175;-70
2022/05/16 08:23:25;;;;;;;5.07;2.30;;;22.30;93.80;;;;;;5032851;28;20177;-70
2022/05/16 08:25:55;;;;;;;3.00;1.90;;;22.40;94.10;;;;;;5036355;28;20212;-70
2022/05/16 08:28:22;;;;;;;2.60;2.00;;;22.60;94.30;;;;;;5036716;28;20246;-68
2022/05/16 08:30:53;;;;;;;6.78;2.30;;;22.80;94.30;;;;;;5036793;28;20188;-70
2022/05/16 08:33:19;;;;;;;3.88;1.80;;;22.90;94.10;;;;;;5037033;28;20162;-70
2022/05/16 08:39:51;;;;;;;4.65;2.05;;;23.10;94.60;;;;;;5036087;28;20181;-70
2022/05/16 08:41:16;;;;;;;3.05;1.83;;;23.50;94.10;;;;;;5053756;28;20243;-70
2022/05/16 08:43:50;;;;;;;3.80;2.20;;;23.60;93.80;;;;;;5036444;28;20268;-70
2022/05/16 08:46:33;;;;;;;2.63;1.98;;;23.70;93.60;;;;;;5019105;28;20174;-71
2022/05/16 08:49:19;;;;;;;5.45;2.20;;;23.90;93.30;;;;;;5041037;28;20177;-70
2022/05/16 08:51:51;;;;;;;3.95;1.90;;;23.90;93.30;;;;;;5036747;28;20193;-70
2022/05/16 08:54:42;;;;;;;5.28;2.35;;;24.00;93.30;;;;;;5036723;28;20200;-71
2022/05/16 08:57:28;;;;;;;4.07;1.90;;;24.10;93.10;;;;;;5036458;28;20201;-71
2022/05/16 09:00:05;;;;;;;3.25;2.05;;;24.20;93.30;;;;;;5016750;28;20185;-71
2022/05/16 09:02:36;;;;;;;3.28;1.90;;;24.30;93.10;;;;;;5031339;28;20243;-70
2022/05/16 09:05:09;;;;;;;3.63;1.95;;;24.40;93.10;;;;;;5035869;28;20196;-71
2022/05/16 09:07:44;;;;;;;2.95;2.05;;;24.50;93.00;;;;;;5035803;28;20192;-70
2022/05/16 09:10:13;;;;;;;2.70;1.90;;;24.60;92.80;;;;;;5036556;28;20378;-71
2022/05/16 09:12:48;;;;;;;2.75;2.00;;;24.60;92.70;;;;;;5036546;28;20181;-71
2022/05/16 09:15:30;;;;;;;3.92;2.08;;;24.70;92.50;;;;;;5036245;28;20181;-71
2022/05/16 09:18:22;;;;;;;4.22;2.13;;;24.70;92.70;;;;;;5036775;28;20273;-71
2022/05/16 09:21:15;;;;;;;2.42;1.80;;;24.70;92.40;;;;;;5024420;28;20567;-69
2022/05/16 09:23:47;;;;;;;4.70;1.80;;;24.70;92.40;;;;;;5016873;28;20201;-71
2022/05/16 09:26:35;;;;;;;3.13;1.90;;;24.80;92.40;;;;;;5016481;28;20204;-68
2022/05/16 09:29:17;;;;;;;4.03;2.20;;;24.80;92.40;;;;;;5016153;28;20194;-70
2022/05/16 09:31:45;;;;;;;4.55;2.08;;;24.90;92.50;;;;;;5028131;28;20264;-70
2022/05/16 09:34:12;;;;;;;3.13;2.10;;;24.90;92.50;;;;;;5036274;28;20216;-70
2022/05/16 09:36:49;;;;;;;3.70;2.10;;;24.90;92.50;;;;;;5035109;28;20311;-70
2022/05/16 09:39:24;;;;;;;3.92;1.73;;;25.00;92.40;;;;;;5035773;28;20260;-70
2022/05/16 09:41:58;;;;;;;3.60;1.92;;;25.10;92.40;;;;;;5035862;28;20291;-71
2022/05/16 09:44:35;;;;;;;3.38;2.08;;;25.20;92.40;;;;;;5035360;28;20418;-70
2022/05/16 09:47:27;;;;;;;4.00;2.03;;;25.30;92.50;;;;;;5035621;28;20231;-71
2022/05/16 09:50:02;;;;;;;2.90;1.83;;;25.40;92.50;;;;;;5035590;28;20276;-70
2022/05/16 09:52:35;;;;;;;3.33;1.80;;;25.50;92.40;;;;;;5050050;28;20353;-70
2022/05/16 09:55:10;;;;;;;4.55;2.13;;;25.60;92.40;;;;;;5035628;28;20208;-70
2022/05/16 09:57:47;;;;;;;4.03;1.92;;;25.80;92.30;;;;;;5036071;28;20173;-70
2022/05/16 10:00:15;;;;;;;2.45;1.80;;;25.80;92.00;;;;;;5035623;28;20226;-70
2022/05/16 10:02:44;;;;;;;1.98;1.60;;;26.00;92.00;;;;;;5032685;28;20290;-68
2022/05/16 10:05:31;;;;;;;4.80;1.90;;;26.10;91.80;;;;;;5035397;28;20219;-70
2022/05/16 10:08:11;;;;;;;3.42;1.77;;;26.20;91.50;;;;;;5035149;28;20197;-71
2022/05/16 10:10:45;;;;;;;3.88;1.73;;;26.30;91.40;;;;;;5035536;28;20181;-70
2022/05/16 10:13:12;;;;;;;2.50;1.60;;;26.50;91.10;;;;;;5039309;28;20177;-69
2022/05/16 10:15:40;;;;;;;2.35;1.70;;;26.60;91.00;;;;;;5039444;28;20197;-70
2022/05/16 10:18:13;;;;;;;2.65;1.83;;;26.70;90.90;;;;;;5039536;28;20177;-70
2022/05/16 10:20:46;;;;;;;2.67;1.70;;;26.80;90.40;;;;;;5039102;28;20455;-68
2022/05/16 10:23:24;;;;;;;2.67;1.60;;;26.90;90.30;;;;;;5037048;28;20181;-73
2022/05/16 10:25:57;;;;;;;2.38;1.60;;;27.00;89.60;;;;;;5019910;28;20185;-71
2022/05/16 10:28:35;;;;;;;3.42;1.70;;;27.10;90.20;;;;;;5038521;28;20181;-70
2022/05/16 10:34:10;;;;;;;5.07;1.52;;;27.40;89.30;;;;;;5056876;28;20219;-71
2022/05/16 10:36:37;;;;;;;1.55;1.40;;;27.70;88.80;;;;;;5039727;28;20256;-71
2022/05/16 10:39:10;;;;;;;2.55;1.80;;;27.90;89.10;;;;;;5039100;28;20177;-71
2022/05/16 10:41:54;;;;;;;1.60;1.50;;;28.10;87.40;;;;;;5036909;28;20236;-71
2022/05/16 10:44:20;;;;;;;2.35;1.45;;;28.10;85.20;;;;;;5029648;28;20280;-71
2022/05/16 10:46:56;;;;;;;2.25;1.33;;;28.10;86.40;;;;;;5038726;28;20295;-70
2022/05/16 10:49:28;;;;;;;2.72;1.40;;;28.10;85.50;;;;;;5038155;28;20227;-70
2022/05/16 10:52:04;;;;;;;3.47;1.48;;;28.30;86.60;;;;;;5038792;28;20224;-69
2022/05/16 10:54:33;;;;;;;3.75;1.70;;;28.50;85.50;;;;;;5038518;28;20193;-71
2022/05/16 10:57:31;;;;;;;2.25;1.60;;;28.80;87.00;;;;;;5038841;28;20178;-71
2022/05/16 11:00:18;;;;;;;2.10;1.40;;;29.10;83.20;;;;;;5021824;28;20252;-71
2022/05/16 11:03:19;;;;;;;2.60;1.50;;;29.40;82.50;;;;;;5036754;28;20179;-70
2022/05/16 11:06:12;;;;;;;1.80;1.30;;;29.50;81.00;;;;;;5037995;28;20193;-71
2022/05/16 11:08:47;;;;;;;3.47;1.63;;;29.60;79.20;;;;;;5037849;28;20256;-71
2022/05/16 11:11:21;;;;;;;2.58;1.67;;;29.60;81.30;;;;;;5038535;28;20183;-71
2022/05/16 11:13:47;;;;;;;2.80;1.35;;;29.70;79.90;;;;;;5037976;28;20219;-69
2022/05/16 11:16:28;;;;;;;1.75;1.30;;;29.80;79.60;;;;;;5035528;28;20168;-71
2022/05/16 11:19:27;;;;;;;3.38;1.40;;;29.80;78.00;;;;;;5026436;28;20285;-70
2022/05/16 11:22:05;;;;;;;1.85;1.30;;;29.60;77.40;;;;;;5038161;28;20188;-71
2022/05/16 11:24:54;;;;;;;2.22;1.15;;;29.50;76.40;;;;;;5037817;28;20197;-71
2022/05/16 11:27:39;;;;;;;1.85;1.30;;;29.30;76.10;;;;;;5034701;28;20219;-70
2022/05/16 11:30:26;;;;;;;2.40;1.23;;;29.10;76.10;;;;;;5018372;28;20181;-69
2022/05/16 11:32:59;;;;;;;2.50;1.00;;;28.80;74.10;;;;;;5036394;28;20242;-71
2022/05/16 11:35:43;;;;;;;1.50;1.35;;;28.50;75.30;;;;;;5037357;28;20220;-71
2022/05/16 11:38:33;;;;;;;2.05;1.40;;;28.20;75.40;;;;;;5034586;28;20208;-71
2022/05/16 11:41:10;;;;;;;2.63;1.60;;;28.00;77.00;;;;;;5030714;28;20173;-70
2022/05/16 11:43:44;;;;;;;2.75;1.40;;;27.70;78.00;;;;;;5036464;28;20197;-71
2022/05/16 11:46:31;;;;;;;2.40;1.55;;;27.40;78.60;;;;;;5037626;28;20173;-68
2022/05/16 11:49:15;;;;;;;5.28;1.70;;;27.20;80.70;;;;;;5035122;28;20417;-70
2022/05/16 11:51:53;;;;;;;2.75;1.58;;;26.90;79.60;;;;;;5036893;28;20201;-71
2022/05/16 11:54:47;;;;;;;1.88;1.48;;;26.60;82.20;;;;;;5037252;28;20210;-70
2022/05/16 12:02:59;;;;;;;2.20;1.63;;;25.80;84.60;;;;;;5055151;28;20190;-71
2022/05/16 12:05:26;;;;;;;5.90;1.40;;;25.50;85.10;;;;;;5033485;28;20204;-70
2022/05/16 12:08:06;;;;;;;2.28;1.50;;;25.20;85.40;;;;;;5017678;28;20177;-70
2022/05/16 12:10:33;;;;;;;3.47;1.40;;;24.90;87.50;;;;;;5036993;28;20189;-71
2022/05/16 12:13:23;;;;;;;5.05;1.60;;;24.60;87.20;;;;;;5033482;28;20177;-70
2022/05/16 12:16:12;;;;;;;1.90;1.23;;;24.30;89.90;;;;;;5045468;28;20213;-70
2022/05/16 12:18:40;;;;;;;2.30;1.40;;;23.90;90.50;;;;;;5025341;28;20257;-71
2022/05/16 12:21:09;;;;;;;2.15;1.48;;;23.50;90.20;;;;;;5037055;28;20216;-71
2022/05/16 12:23:44;;;;;;;3.63;1.63;;;23.10;90.80;;;;;;5036502;28;20165;-70
2022/05/16 12:26:11;;;;;;;3.45;1.60;;;22.90;92.10;;;;;;5036349;28;20279;-71
2022/05/16 12:28:39;;;;;;;3.90;2.00;;;22.70;91.70;;;;;;5037036;28;20243;-71
2022/05/16 12:31:06;;;;;;;5.35;1.90;;;22.60;93.20;;;;;;5022087;28;20170;-71
2022/05/16 12:33:43;;;;;;;3.08;1.70;;;22.50;94.00;;;;;;5033430;28;20176;-70
2022/05/16 12:36:25;;;;;;;2.08;1.35;;;22.40;95.70;;;;;;5037075;28;20201;-69
2022/05/16 12:39:19;;;;;;;3.30;1.60;;;22.40;96.90;;;;;;5017333;28;20249;-70
2022/05/16 12:42:07;;;;;;;3.47;2.05;;;22.30;96.70;;;;;;5007851;28;20281;-70
2022/05/16 12:44:47;;;;;;;6.00;2.03;;;22.20;97.50;;;;;;5017279;28;20182;-69
2022/05/16 12:47:34;;;;;;;4.13;1.80;;;22.00;97.80;;;;;;5034368;28;20154;-70
2022/05/16 12:50:27;;;;;;;2.97;1.60;;;21.80;99.50;;;;;;5021549;28;20169;-70
2022/05/16 12:53:04;;;;;;;4.13;1.70;;;21.50;99.90;;;;;;5036160;28;20181;-70
2022/05/16 12:55:50;;;;;;;4.10;1.73;;;21.30;99.90;;;;;;5034521;28;20189;-71
2022/05/16 12:58:21;;;;;;;4.82;1.90;;;21.00;99.90;;;;;;5027722;28;20173;-71
2022/05/16 13:01:09;;;;;;;5.18;2.20;;;20.80;99.90;;;;;;5035655;28;20201;-70
2022/05/16 13:03:47;;;;;;;5.78;1.98;;;20.70;99.90;;;;;;5028623;28;20174;-69
2022/05/16 13:06:33;;;;;;;4.32;2.30;;;20.50;99.90;;;;;;5035501;28;20251;-66
2022/05/16 13:09:13;;;;;;;4.30;2.25;;;20.30;99.90;;;;;;5020792;28;20193;-69
2022/05/16 13:11:47;;;;;;;3.97;2.10;;;20.20;99.90;;;;;;5035592;28;20193;-69
2022/05/16 13:14:43;;;;;;;5.75;2.30;;;20.00;99.90;;;;;;5036249;28;20201;-70
2022/05/16 13:17:16;;;;;;;5.28;2.33;;;19.90;99.90;;;;;;5020408;28;20246;-70
2022/05/16 13:19:47;;;;;;;6.68;2.97;;;19.80;99.90;;;;;;5035941;28;20368;-69
2022/05/16 13:22:18;;;;;;;7.00;2.88;;;19.80;99.90;;;;;;5035977;28;20432;-69
2022/05/16 13:24:44;;;;;;;6.28;2.53;;;19.70;99.90;;;;;;5035450;28;20193;-70
2022/05/16 13:30:04;;;;;;;6.43;2.60;;;19.70;99.90;;;;;;5042741;28;20193;-71
2022/05/16 13:32:33;;;;;;;3.83;2.67;;;19.70;99.90;;;;;;5023970;28;20211;-71
2022/05/16 13:35:04;;;;;;;4.00;2.60;;;19.70;99.90;;;;;;5036178;28;20193;-71
2022/05/16 13:37:45;;;;;;;4.57;2.67;;;19.80;99.90;;;;;;5035780;28;20215;-70
2022/05/16 13:40:25;;;;;;;3.60;2.83;;;19.90;99.90;;;;;;5032474;28;20177;-67
2022/05/16 13:42:54;;;;;;;6.03;3.00;;;20.00;99.90;;;;;;5045692;28;20177;-71
2022/05/16 13:45:28;;;;;;;7.03;3.00;;;20.20;99.90;;;;;;5035598;28;20265;-71
2022/05/16 13:48:08;;;;;;;6.72;2.85;;;20.40;99.90;;;;;;5036748;28;20269;-71
2022/05/16 13:50:37;;;;;;;3.50;2.50;;;20.60;99.90;;;;;;5035388;28;20173;-70
2022/05/16 13:53:03;;;;;;;5.78;2.70;;;20.80;99.90;;;;;;5039760;28;20225;-71
2022/05/16 13:55:34;;;;;;;6.63;3.03;;;20.90;99.90;;;;;;5039613;28;20203;-71
2022/05/16 13:58:06;;;;;;;4.68;3.00;;;21.00;99.90;;;;;;5040053;28;20193;-70
2022/05/16 14:00:36;;;;;;;4.00;2.72;;;21.10;99.90;;;;;;5039689;28;20315;-71
2022/05/16 14:03:08;;;;;;;4.82;2.88;;;21.10;99.90;;;;;;5039355;28;20173;-71
2022/05/16 14:05:36;;;;;;;4.32;2.53;;;21.10;99.90;;;;;;5055720;28;20177;-71
2022/05/16 14:08:20;;;;;;;3.65;2.60;;;21.20;99.90;;;;;;5039550;28;20180;-71
2022/05/16 14:10:48;;;;;;;5.35;2.92;;;21.20;99.90;;;;;;5039044;28;20213;-72
2022/05/16 14:13:18;;;;;;;4.65;3.35;;;21.30;99.90;;;;;;5039580;28;20166;-71
2022/05/16 14:16:07;;;;;;;4.85;3.22;;;21.30;99.90;;;;;;5038764;28;20250;-70
2022/05/16 14:18:47;;;;;;;3.67;2.95;;;21.40;99.90;;;;;;5039043;28;20174;-71
2022/05/16 14:21:22;;;;;;;4.82;3.08;;;21.50;99.90;;;;;;5038910;28;20185;-72
2022/05/16 14:24:08;;;;;;;5.38;3.03;;;21.60;99.90;;;;;;5039503;28;20208;-71
2022/05/16 14:26:34;;;;;;;5.07;3.45;;;21.70;99.90;;;;;;5037902;28;20185;-71
2022/05/16 14:29:20;;;;;;;4.70;3.45;;;21.80;99.90;;;;;;5039120;28;20177;-71
2022/05/16 14:32:09;;;;;;;6.20;3.20;;;21.90;99.90;;;;;;5038543;28;20157;-69
2022/05/16 14:34:43;;;;;;;5.28;3.35;;;22.00;99.90;;;;;;5019276;28;20264;-68
2022/05/16 14:37:09;;;;;;;4.35;3.08;;;22.20;99.90;;;;;;5027667;28;20205;-72
2022/05/16 14:39:48;;;;;;;4.60;3.30;;;22.30;99.90;;;;;;5020052;28;20270;-67
2022/05/16 14:42:31;;;;;;;5.20;2.90;;;22.50;99.90;;;;;;5027055;28;20173;-72
2022/05/16 14:45:06;;;;;;;9.07;3.10;;;22.60;99.90;;;;;;5023232;28;20217;-73
2022/05/16 14:47:40;;;;;;;6.07;3.20;;;22.70;99.90;;;;;;5035455;28;20180;-70
2022/05/16 14:50:23;;;;;;;3.70;2.67;;;22.90;99.90;;;;;;5038393;28;20427;-71
2022/05/16 14:53:00;;;;;;;5.47;3.03;;;23.10;99.90;;;;;;5038935;28;20166;-72
2022/05/16 14:55:39;;;;;;;4.40;2.85;;;23.30;99.90;;;;;;5020835;28;20212;-67
2022/05/16 14:58:09;;;;;;;3.17;2.67;;;23.40;99.90;;;;;;5035011;28;20169;-71
2022/05/16 15:06:09;;;;;;;4.63;3.05;;;23.50;99.90;;;;;;5055746;28;20387;-73
2022/05/16 15:08:44;;;;;;;4.30;3.08;;;23.60;99.90;;;;;;5037667;28;20201;-73
2022/05/16 15:11:13;;;;;;;3.75;2.85;;;23.70;99.90;;;;;;5038538;28;20204;-72
2022/05/16 15:13:39;;;;;;;4.45;2.88;;;23.80;99.90;;;;;;5031400;28;20220;-73
2022/05/16 15:16:05;;;;;;;5.43;3.10;;;23.90;99.90;;;;;;5021743;28;20287;-70
2022/05/16 15:18:32;;;;;;;5.10;3.50;;;23.90;99.90;;;;;;5018504;28;20178;-71
2022/05/16 15:21:00;;;;;;;6.50;3.45;;;24.00;99.90;;;;;;5033161;28;20193;-69
2022/05/16 15:23:28;;;;;;;6.47;3.70;;;23.90;99.90;;;;;;5038464;28;20165;-73
2022/05/16 15:25:55;;;;;;;4.70;3.33;;;23.90;99.90;;;;;;5037948;28;20240;-72
2022/05/16 15:28:21;;;;;;;4.18;3.53;;;23.90;99.90;;;;;;5037641;28;20208;-72
2022/05/16 15:30:47;;;;;;;5.03;3.60;;;23.80;99.90;;;;;;5037555;28;20177;-72
2022/05/16 15:33:20;;;;;;;6.13;4.30;;;23.80;99.90;;;;;;5037753;28;20173;-70
2022/05/16 15:35:51;;;;;;;4.85;4.25;;;23.70;99.90;;;;;;5037086;28;20249;-72
2022/05/16 15:38:19;;;;;;;5.80;4.30;;;23.70;99.90;;;;;;5038033;28;20225;-72
2022/05/16 15:40:47;;;;;;;6.18;4.30;;;23.60;99.90;;;;;;5026220;28;20170;-72
2022/05/16 15:43:19;;;;;;;5.18;4.00;;;23.50;99.90;;;;;;5019689;28;20174;-73
2022/05/16 15:45:46;;;;;;;4.65;3.63;;;23.50;99.90;;;;;;5038301;28;20262;-72
2022/05/16 15:48:14;;;;;;;5.55;4.45;;;23.40;99.90;;;;;;5037835;28;20173;-72
2022/05/16 15:50:40;;;;;;;6.20;4.57;;;23.40;99.90;;;;;;5037331;28;20197;-72
2022/05/16 15:53:09;;;;;;;5.90;4.18;;;23.40;99.90;;;;;;5037992;28;20169;-70
2022/05/16 15:55:36;;;;;;;4.57;4.10;;;23.30;99.90;;;;;;5036958;28;20220;-69
2022/05/16 15:58:06;;;;;;;4.20;3.80;;;23.20;99.90;;;;;;5037134;28;20219;-69
2022/05/16 16:00:33;;;;;;;6.40;3.50;;;23.20;99.90;;;;;;5037576;28;20190;-71
2022/05/16 16:03:01;;;;;;;4.40;3.80;;;23.10;99.90;;;;;;5032391;28;20189;-71
2022/05/16 16:08:39;;;;;;;3.95;3.47;;;23.10;99.90;;;;;;5053522;28;20216;-72
2022/05/16 16:11:06;;;;;;;4.93;3.65;;;23.00;99.90;;;;;;5036777;28;20185;-71
2022/05/16 16:13:31;;;;;;;4.35;3.72;;;23.00;99.90;;;;;;5037041;28;20181;-71
2022/05/16 16:15:59;;;;;;;3.88;3.47;;;23.00;99.90;;;;;;5036656;28;20197;-71
2022/05/16 16:18:28;;;;;;;5.25;4.05;;;22.90;99.90;;;;;;5036869;28;20241;-72
2022/05/16 16:20:54;;;;;;;4.85;4.20;;;22.90;99.90;;;;;;5037524;28;20246;-71
2022/05/16 16:23:21;;;;;;;4.45;4.05;;;22.80;99.90;;;;;;5036767;28;20166;-71
2022/05/16 16:25:48;;;;;;;4.75;4.10;;;22.70;99.90;;;;;;5035495;28;20200;-72
2022/05/16 16:28:18;;;;;;;4.32;3.92;;;22.70;99.90;;;;;;5043365;28;20212;-71
2022/05/16 16:30:50;;;;;;;7.35;5.53;;;22.60;99.90;;;;;;5034845;28;20177;-72
2022/05/16 16:33:17;;;;;;;5.80;5.20;;;22.60;99.90;;;;;;5042479;28;20204;-70
2022/05/16 16:35:43;;;;;;;6.95;4.93;;;22.50;99.90;;;;;;5035355;28;20197;-72
2022/05/16 16:38:10;;;;;;;6.18;4.50;;;22.40;99.90;;;;;;5031789;28;20178;-72
2022/05/16 16:40:39;;;;;;;5.20;4.70;;;22.40;99.90;;;;;;5029278;28;20196;-72
2022/05/16 16:43:07;;;;;;;5.38;4.80;;;22.30;99.90;;;;;;5019089;28;20218;-71
2022/05/16 16:45:37;;;;;;;6.35;4.43;;;22.20;99.90;;;;;;5029942;28;20204;-70
2022/05/16 16:48:05;;;;;;;5.97;4.28;;;22.20;99.90;;;;;;5028000;28;20250;-72
2022/05/16 16:50:33;;;;;;;5.38;4.30;;;22.10;99.90;;;;;;5036331;28;20185;-71
2022/05/16 16:58:32;;;;;;;7.63;4.85;;;21.90;99.90;;;;;;5044713;28;20204;-71
2022/05/16 17:00:58;;;;;;;5.03;4.20;;;21.80;99.90;;;;;;5036467;28;20173;-69
2022/05/16 17:03:23;;;;;;;5.78;3.67;;;21.70;99.90;;;;;;5035691;28;20183;-72
2022/05/16 17:05:49;;;;;;;4.88;3.75;;;21.70;99.90;;;;;;5035780;28;20173;-70
2022/05/16 17:08:20;;;;;;;6.22;3.63;;;21.70;99.90;;;;;;5031747;28;20181;-70
2022/05/16 17:10:52;;;;;;;4.65;3.20;;;21.70;99.90;;;;;;5016496;28;20203;-70
2022/05/16 17:13:23;;;;;;;4.65;3.30;;;21.80;99.90;;;;;;5017619;28;20243;-71
2022/05/16 17:15:53;;;;;;;4.28;3.30;;;21.80;99.90;;;;;;5035580;28;20219;-71
2022/05/16 17:18:19;;;;;;;4.50;3.40;;;21.90;99.90;;;;;;5036044;28;20188;-71
2022/05/16 17:20:47;;;;;;;5.32;3.33;;;22.00;99.90;;;;;;5035688;28;20287;-71
2022/05/16 17:23:16;;;;;;;4.88;3.30;;;22.00;99.90;;;;;;5031962;28;20181;-71
2022/05/16 17:25:51;;;;;;;4.30;3.00;;;22.10;99.90;;;;;;5037215;28;20185;-72
2022/05/16 17:28:23;;;;;;;5.10;3.15;;;22.10;99.90;;;;;;5037604;28;20222;-70
2022/05/16 17:30:54;;;;;;;4.88;3.25;;;22.10;99.90;;;;;;5044470;28;20208;-72
2022/05/16 17:33:21;;;;;;;5.90;3.30;;;22.10;99.90;;;;;;5041306;28;20219;-69
2022/05/16 17:35:47;;;;;;;3.65;2.63;;;22.10;99.90;;;;;;5030787;28;20197;-72
2022/05/16 17:38:14;;;;;;;7.82;5.53;;;22.20;99.90;;;;;;5035749;28;20166;-71
2022/05/16 17:40:42;;;;;;;21.83;17.27;;;22.10;99.90;;;;;;5038684;28;20204;-71
2022/05/16 17:43:10;;;;;;;10.18;8.10;;;22.20;99.90;;;;;;5037831;28;20212;-69
2022/05/16 17:45:38;;;;;;;9.40;4.95;;;22.10;99.90;;;;;;5026845;28;20205;-69
2022/05/16 17:48:06;;;;;;;4.60;3.83;;;22.20;99.90;;;;;;5035013;28;20190;-68
2022/05/16 17:50:39;;;;;;;6.15;3.60;;;22.10;99.90;;;;;;5031333;28;20177;-72
2022/05/16 17:53:07;;;;;;;7.13;3.75;;;22.20;99.90;;;;;;5034579;28;20252;-70
2022/05/16 17:55:36;;;;;;;5.68;3.50;;;22.20;99.90;;;;;;5035997;28;20230;-69
2022/05/16 17:58:06;;;;;;;4.32;3.17;;;22.20;99.90;;;;;;5036177;28;20269;-71
2022/05/16 18:00:32;;;;;;;5.57;3.20;;;22.20;99.90;;;;;;5031979;28;20184;-71
2022/05/16 18:02:58;;;;;;;7.60;4.57;;;22.20;99.90;;;;;;5031063;28;20181;-69
2022/05/16 18:05:27;;;;;;;17.05;13.80;;;22.20;99.90;;;;;;5027701;28;20344;-69
2022/05/16 18:07:53;;;;;;;9.57;6.95;;;22.20;99.90;;;;;;5033136;28;20196;-71
2022/05/16 18:10:19;;;;;;;7.10;5.30;;;22.30;99.90;;;;;;5031062;28;20190;-68
2022/05/16 18:12:46;;;;;;;5.72;4.55;;;22.30;99.90;;;;;;5034184;28;20282;-70
2022/05/16 18:15:40;;;;;;;7.95;4.00;;;22.30;99.90;;;;;;5034993;28;20270;-71
2022/05/16 18:18:08;;;;;;;4.75;3.58;;;22.30;99.90;;;;;;5023414;28;20217;-70
2022/05/16 18:20:40;;;;;;;5.53;3.63;;;22.30;99.90;;;;;;5032030;28;20182;-71
2022/05/16 18:23:11;;;;;;;7.72;4.80;;;22.20;99.90;;;;;;5034311;28;20178;-70
2022/05/16 18:25:37;;;;;;;7.60;4.30;;;22.20;99.90;;;;;;5035689;28;20196;-71
2022/05/16 18:28:05;;;;;;;5.75;4.03;;;22.20;99.90;;;;;;5043445;28;20185;-70
2022/05/16 18:30:31;;;;;;;11.77;9.65;;;22.20;99.90;;;;;;5032166;28;20216;-70
2022/05/16 18:32:58;;;;;;;6.10;5.18;;;22.10;99.90;;;;;;5025552;28;20181;-71
2022/05/16 18:35:30;;;;;;;5.40;4.22;;;22.10;99.90;;;;;;5036815;28;20216;-71
2022/05/16 18:37:59;;;;;;;5.00;4.30;;;22.10;99.90;;;;;;5038970;28;20279;-70
2022/05/16 18:40:27;;;;;;;4.90;4.05;;;22.00;99.90;;;;;;5036182;28;20188;-67
2022/05/16 18:51:16;;;;;;;41.20;31.23;;;21.80;99.90;;;;;;5042270;28;20183;-71
2022/05/16 18:53:48;;;;;;;19.52;16.02;;;21.70;99.90;;;;;;5034639;28;20308;-71
2022/05/16 18:56:17;;;;;;;11.00;9.05;;;21.60;99.90;;;;;;5036673;28;20278;-72
2022/05/16 18:58:42;;;;;;;9.23;7.20;;;21.50;99.90;;;;;;5033658;28;20265;-72
2022/05/16 19:01:10;;;;;;;9.60;5.88;;;21.50;99.90;;;;;;5040685;28;20252;-72
2022/05/16 19:03:38;;;;;;;5.85;4.68;;;21.40;99.90;;;;;;5037381;28;20184;-71
2022/05/16 19:06:06;;;;;;;8.35;4.35;;;21.30;99.90;;;;;;5029947;28;20383;-71
2022/05/16 19:08:32;;;;;;;4.57;4.05;;;21.20;99.90;;;;;;5029823;28;20224;-71
2022/05/16 19:11:04;;;;;;;4.35;3.50;;;21.10;99.90;;;;;;5032548;28;20177;-70
2022/05/16 19:13:31;;;;;;;6.57;3.85;;;21.10;99.90;;;;;;5039413;28;20177;-70
2022/05/16 19:16:00;;;;;;;5.78;3.50;;;21.00;99.90;;;;;;5049201;28;20213;-71
2022/05/16 19:18:25;;;;;;;5.65;3.75;;;21.00;99.90;;;;;;5051474;28;20311;-71
2022/05/16 19:20:53;;;;;;;6.32;3.65;;;21.00;99.90;;;;;;5045767;28;20206;-66